Aviation Digital Data Service (ADDS)

Output produced by METARs form (0517 UTC 21 January 2019)
found at http://www.aviationweather.gov/metar/data/
 
Forecast for: MMMD (MERIDA INTL ARPT, MX)
Text: TAF MMMD 210451Z 2106/2212 00000KT 6SM HZ BKN020 TX24/2121Z TN21/2112Z
Forecast period: 0600 to 1800 UTC 21 January 2019
Forecast type: FROM: standard forecast or significant change
Winds: calm
Visibility: 6 miles (10 km)
Ceiling: 2000 feet AGL
Clouds: broken clouds at 2000 feet AGL
Weather: HZ  (haze)
Text: TEMPO 2111/2115 BKN010
Forecast period: 1100 to 1500 UTC 21 January 2019
Forecast type: TEMPORARY: The following changes expected for less than half the time period
Visibility: missing
Ceiling: 1000 feet AGL
Clouds: broken clouds at 1000 feet AGL
Weather: no significant weather forecast for this period
Text: FM211800 33010KT 6SM HZ BKN030
Forecast period: 1800 UTC 21 January 2019 to 0300 UTC 22 January 2019
Forecast type: FROM: standard forecast or significant change
Winds: from the NNW (330 degrees) at 12 MPH (10 knots; 5.1 m/s)
Visibility: 6 miles (10 km)
Ceiling: 3000 feet AGL
Clouds: broken clouds at 3000 feet AGL
Weather: HZ  (haze)
Text: FM220300 03005KT 6SM HZ BKN020
Forecast period: 0300 to 1200 UTC 22 January 2019
Forecast type: FROM: standard forecast or significant change
Winds: from the NNE (30 degrees) at 6 MPH (5 knots; 2.6 m/s)
Visibility: 6 miles (10 km)
Ceiling: 2000 feet AGL
Clouds: broken clouds at 2000 feet AGL
Weather: HZ  (haze)